sensor_id;sensor_type;location;lat;lon;timestamp;P1;P2;P0
64138;PMS5003;50435;43.700;-79.318;2023-12-29T00:02:15;4;4;
64138;PMS5003;50435;43.700;-79.318;2023-12-29T00:04:43;7;6;
64138;PMS5003;50435;43.700;-79.318;2023-12-29T00:07:10;6;5;
64138;PMS5003;50435;43.700;-79.318;2023-12-29T00:09:37;4;4;
64138;PMS5003;50435;43.700;-79.318;2023-12-29T00:12:05;4;4;
64138;PMS5003;50435;43.700;-79.318;2023-12-29T00:14:33;5;4;
64138;PMS5003;50435;43.700;-79.318;2023-12-29T00:17:03;6;5;
64138;PMS5003;50435;43.700;-79.318;2023-12-29T00:19:31;4;4;
64138;PMS5003;50435;43.700;-79.318;2023-12-29T00:21:59;5;5;
64138;PMS5003;50435;43.700;-79.318;2023-12-29T00:24:26;3;3;
64138;PMS5003;50435;43.700;-79.318;2023-12-29T00:26:53;7;6;
64138;PMS5003;50435;43.700;-79.318;2023-12-29T00:29:20;4;4;
64138;PMS5003;50435;43.700;-79.318;2023-12-29T00:31:47;5;3;
64138;PMS5003;50435;43.700;-79.318;2023-12-29T00:34:14;3;3;
64138;PMS5003;50435;43.700;-79.318;2023-12-29T00:36:41;5;5;
64138;PMS5003;50435;43.700;-79.318;2023-12-29T00:39:08;6;4;
64138;PMS5003;50435;43.700;-79.318;2023-12-29T00:41:35;2;2;
64138;PMS5003;50435;43.700;-79.318;2023-12-29T00:44:02;4;4;
64138;PMS5003;50435;43.700;-79.318;2023-12-29T00:46:30;4;4;
64138;PMS5003;50435;43.700;-79.318;2023-12-29T00:48:58;6;5;
64138;PMS5003;50435;43.700;-79.318;2023-12-29T00:51:25;6;5;
64138;PMS5003;50435;43.700;-79.318;2023-12-29T00:53:52;5;5;
64138;PMS5003;50435;43.700;-79.318;2023-12-29T00:56:19;9;9;
64138;PMS5003;50435;43.700;-79.318;2023-12-29T00:58:47;6;6;
64138;PMS5003;50435;43.700;-79.318;2023-12-29T01:01:14;4;4;
64138;PMS5003;50435;43.700;-79.318;2023-12-29T01:03:41;5;5;
64138;PMS5003;50435;43.700;-79.318;2023-12-29T01:06:08;6;6;
64138;PMS5003;50435;43.700;-79.318;2023-12-29T01:08:35;6;6;
64138;PMS5003;50435;43.700;-79.318;2023-12-29T01:11:02;6;6;
64138;PMS5003;50435;43.700;-79.318;2023-12-29T01:13:30;4;4;
64138;PMS5003;50435;43.700;-79.318;2023-12-29T01:15:58;5;5;
64138;PMS5003;50435;43.700;-79.318;2023-12-29T01:18:25;4;4;
64138;PMS5003;50435;43.700;-79.318;2023-12-29T01:20:52;4;4;
64138;PMS5003;50435;43.700;-79.318;2023-12-29T01:23:19;6;4;
64138;PMS5003;50435;43.700;-79.318;2023-12-29T01:25:46;8;5;
64138;PMS5003;50435;43.700;-79.318;2023-12-29T01:28:14;6;6;
64138;PMS5003;50435;43.700;-79.318;2023-12-29T01:30:41;9;6;
64138;PMS5003;50435;43.700;-79.318;2023-12-29T01:33:09;7;6;
64138;PMS5003;50435;43.700;-79.318;2023-12-29T01:35:36;8;8;
64138;PMS5003;50435;43.700;-79.318;2023-12-29T01:38:04;11;10;
64138;PMS5003;50435;43.700;-79.318;2023-12-29T01:40:31;11;8;
64138;PMS5003;50435;43.700;-79.318;2023-12-29T01:42:58;7;7;
64138;PMS5003;50435;43.700;-79.318;2023-12-29T01:45:25;10;8;
64138;PMS5003;50435;43.700;-79.318;2023-12-29T01:47:53;8;8;
64138;PMS5003;50435;43.700;-79.318;2023-12-29T01:50:21;7;6;
64138;PMS5003;50435;43.700;-79.318;2023-12-29T01:52:49;7;7;
64138;PMS5003;50435;43.700;-79.318;2023-12-29T01:55:18;10;9;
64138;PMS5003;50435;43.700;-79.318;2023-12-29T01:57:46;7;6;
64138;PMS5003;50435;43.700;-79.318;2023-12-29T02:00:15;10;9;
64138;PMS5003;50435;43.700;-79.318;2023-12-29T02:02:43;5;5;
64138;PMS5003;50435;43.700;-79.318;2023-12-29T02:05:13;8;8;
64138;PMS5003;50435;43.700;-79.318;2023-12-29T02:07:41;7;7;
64138;PMS5003;50435;43.700;-79.318;2023-12-29T02:10:10;9;7;
64138;PMS5003;50435;43.700;-79.318;2023-12-29T02:12:38;9;8;
64138;PMS5003;50435;43.700;-79.318;2023-12-29T02:15:06;7;7;
64138;PMS5003;50435;43.700;-79.318;2023-12-29T02:17:36;8;8;
64138;PMS5003;50435;43.700;-79.318;2023-12-29T02:20:07;8;6;
64138;PMS5003;50435;43.700;-79.318;2023-12-29T02:22:36;12;9;
64138;PMS5003;50435;43.700;-79.318;2023-12-29T02:25:04;5;5;
64138;PMS5003;50435;43.700;-79.318;2023-12-29T02:27:36;8;8;
64138;PMS5003;50435;43.700;-79.318;2023-12-29T02:30:15;5;5;
64138;PMS5003;50435;43.700;-79.318;2023-12-29T02:32:47;7;6;
64138;PMS5003;50435;43.700;-79.318;2023-12-29T02:35:21;7;5;
64138;PMS5003;50435;43.700;-79.318;2023-12-29T02:37:51;9;8;
64138;PMS5003;50435;43.700;-79.318;2023-12-29T02:40:19;7;7;
64138;PMS5003;50435;43.700;-79.318;2023-12-29T02:42:47;6;6;
64138;PMS5003;50435;43.700;-79.318;2023-12-29T02:45:16;7;6;
64138;PMS5003;50435;43.700;-79.318;2023-12-29T02:47:44;4;4;
64138;PMS5003;50435;43.700;-79.318;2023-12-29T02:50:12;8;6;
64138;PMS5003;50435;43.700;-79.318;2023-12-29T02:52:39;7;7;
64138;PMS5003;50435;43.700;-79.318;2023-12-29T02:55:07;7;4;
64138;PMS5003;50435;43.700;-79.318;2023-12-29T02:57:35;8;5;
64138;PMS5003;50435;43.700;-79.318;2023-12-29T03:00:02;5;5;
64138;PMS5003;50435;43.700;-79.318;2023-12-29T03:02:30;7;7;
64138;PMS5003;50435;43.700;-79.318;2023-12-29T03:04:58;7;7;
64138;PMS5003;50435;43.700;-79.318;2023-12-29T03:07:26;9;5;
64138;PMS5003;50435;43.700;-79.318;2023-12-29T03:09:53;8;7;
64138;PMS5003;50435;43.700;-79.318;2023-12-29T03:12:20;5;5;
64138;PMS5003;50435;43.700;-79.318;2023-12-29T03:14:48;6;6;
64138;PMS5003;50435;43.700;-79.318;2023-12-29T03:17:15;6;6;
64138;PMS5003;50435;43.700;-79.318;2023-12-29T03:19:43;5;5;
64138;PMS5003;50435;43.700;-79.318;2023-12-29T03:22:10;5;5;
64138;PMS5003;50435;43.700;-79.318;2023-12-29T03:24:39;5;5;
64138;PMS5003;50435;43.700;-79.318;2023-12-29T03:27:06;7;7;
64138;PMS5003;50435;43.700;-79.318;2023-12-29T03:29:34;6;6;
64138;PMS5003;50435;43.700;-79.318;2023-12-29T03:32:03;6;6;
64138;PMS5003;50435;43.700;-79.318;2023-12-29T03:34:31;7;7;
64138;PMS5003;50435;43.700;-79.318;2023-12-29T03:36:58;7;5;
64138;PMS5003;50435;43.700;-79.318;2023-12-29T03:39:25;6;6;
64138;PMS5003;50435;43.700;-79.318;2023-12-29T03:41:53;6;6;
64138;PMS5003;50435;43.700;-79.318;2023-12-29T03:44:20;9;6;
64138;PMS5003;50435;43.700;-79.318;2023-12-29T03:46:47;6;6;
64138;PMS5003;50435;43.700;-79.318;2023-12-29T03:49:14;10;7;
64138;PMS5003;50435;43.700;-79.318;2023-12-29T03:51:42;5;5;
64138;PMS5003;50435;43.700;-79.318;2023-12-29T03:54:09;7;5;
64138;PMS5003;50435;43.700;-79.318;2023-12-29T03:56:37;8;7;
64138;PMS5003;50435;43.700;-79.318;2023-12-29T03:59:04;9;7;
64138;PMS5003;50435;43.700;-79.318;2023-12-29T04:01:33;6;6;
64138;PMS5003;50435;43.700;-79.318;2023-12-29T04:04:00;5;5;
64138;PMS5003;50435;43.700;-79.318;2023-12-29T04:06:28;6;6;
64138;PMS5003;50435;43.700;-79.318;2023-12-29T04:08:55;7;6;
64138;PMS5003;50435;43.700;-79.318;2023-12-29T04:11:22;4;4;
64138;PMS5003;50435;43.700;-79.318;2023-12-29T04:13:50;2;2;
64138;PMS5003;50435;43.700;-79.318;2023-12-29T04:16:17;4;4;
64138;PMS5003;50435;43.700;-79.318;2023-12-29T04:18:44;3;2;
64138;PMS5003;50435;43.700;-79.318;2023-12-29T04:21:13;3;3;
64138;PMS5003;50435;43.700;-79.318;2023-12-29T04:23:41;4;4;
64138;PMS5003;50435;43.700;-79.318;2023-12-29T04:26:09;3;3;
64138;PMS5003;50435;43.700;-79.318;2023-12-29T04:28:36;3;3;
64138;PMS5003;50435;43.700;-79.318;2023-12-29T04:31:04;3;3;
64138;PMS5003;50435;43.700;-79.318;2023-12-29T04:33:31;2;2;
64138;PMS5003;50435;43.700;-79.318;2023-12-29T04:35:58;3;3;
64138;PMS5003;50435;43.700;-79.318;2023-12-29T04:38:25;2;2;
64138;PMS5003;50435;43.700;-79.318;2023-12-29T04:40:52;5;3;
64138;PMS5003;50435;43.700;-79.318;2023-12-29T04:43:19;4;3;
64138;PMS5003;50435;43.700;-79.318;2023-12-29T04:45:47;4;3;
64138;PMS5003;50435;43.700;-79.318;2023-12-29T04:48:14;6;3;
64138;PMS5003;50435;43.700;-79.318;2023-12-29T04:50:41;4;4;
64138;PMS5003;50435;43.700;-79.318;2023-12-29T04:53:08;3;3;
64138;PMS5003;50435;43.700;-79.318;2023-12-29T04:55:35;2;2;
64138;PMS5003;50435;43.700;-79.318;2023-12-29T04:58:03;2;2;
64138;PMS5003;50435;43.700;-79.318;2023-12-29T05:00:30;2;2;
64138;PMS5003;50435;43.700;-79.318;2023-12-29T05:02:57;2;2;
64138;PMS5003;50435;43.700;-79.318;2023-12-29T05:05:24;3;2;
64138;PMS5003;50435;43.700;-79.318;2023-12-29T05:07:51;2;2;
64138;PMS5003;50435;43.700;-79.318;2023-12-29T05:10:19;4;2;
64138;PMS5003;50435;43.700;-79.318;2023-12-29T05:12:46;4;2;
64138;PMS5003;50435;43.700;-79.318;2023-12-29T05:15:13;1;1;
64138;PMS5003;50435;43.700;-79.318;2023-12-29T05:17:40;3;3;
64138;PMS5003;50435;43.700;-79.318;2023-12-29T05:20:08;4;3;
64138;PMS5003;50435;43.700;-79.318;2023-12-29T05:22:36;2;2;
64138;PMS5003;50435;43.700;-79.318;2023-12-29T05:25:04;2;2;
64138;PMS5003;50435;43.700;-79.318;2023-12-29T05:27:31;4;2;
64138;PMS5003;50435;43.700;-79.318;2023-12-29T05:29:58;2;2;
64138;PMS5003;50435;43.700;-79.318;2023-12-29T05:32:26;3;3;
64138;PMS5003;50435;43.700;-79.318;2023-12-29T05:34:53;3;2;
64138;PMS5003;50435;43.700;-79.318;2023-12-29T05:37:20;1;1;
64138;PMS5003;50435;43.700;-79.318;2023-12-29T05:39:47;2;2;
64138;PMS5003;50435;43.700;-79.318;2023-12-29T05:42:15;3;3;
64138;PMS5003;50435;43.700;-79.318;2023-12-29T05:44:42;2;2;
64138;PMS5003;50435;43.700;-79.318;2023-12-29T05:47:09;2;2;
64138;PMS5003;50435;43.700;-79.318;2023-12-29T05:49:36;5;3;
64138;PMS5003;50435;43.700;-79.318;2023-12-29T05:52:04;4;3;
64138;PMS5003;50435;43.700;-79.318;2023-12-29T05:54:31;2;2;
64138;PMS5003;50435;43.700;-79.318;2023-12-29T05:56:59;3;3;
64138;PMS5003;50435;43.700;-79.318;2023-12-29T05:59:28;3;3;
64138;PMS5003;50435;43.700;-79.318;2023-12-29T06:01:55;1;1;
64138;PMS5003;50435;43.700;-79.318;2023-12-29T06:04:22;4;3;
64138;PMS5003;50435;43.700;-79.318;2023-12-29T06:06:50;2;2;
64138;PMS5003;50435;43.700;-79.318;2023-12-29T06:09:17;3;3;
64138;PMS5003;50435;43.700;-79.318;2023-12-29T06:11:45;4;4;
64138;PMS5003;50435;43.700;-79.318;2023-12-29T06:14:12;2;2;
64138;PMS5003;50435;43.700;-79.318;2023-12-29T06:16:39;3;2;
64138;PMS5003;50435;43.700;-79.318;2023-12-29T06:19:07;3;3;
64138;PMS5003;50435;43.700;-79.318;2023-12-29T06:21:40;4;2;
64138;PMS5003;50435;43.700;-79.318;2023-12-29T06:24:08;3;3;
64138;PMS5003;50435;43.700;-79.318;2023-12-29T06:26:35;4;4;
64138;PMS5003;50435;43.700;-79.318;2023-12-29T06:29:02;4;4;
64138;PMS5003;50435;43.700;-79.318;2023-12-29T06:31:29;5;5;
64138;PMS5003;50435;43.700;-79.318;2023-12-29T06:33:57;3;3;
64138;PMS5003;50435;43.700;-79.318;2023-12-29T06:36:24;3;3;
64138;PMS5003;50435;43.700;-79.318;2023-12-29T06:38:51;3;2;
64138;PMS5003;50435;43.700;-79.318;2023-12-29T06:41:19;4;4;
64138;PMS5003;50435;43.700;-79.318;2023-12-29T06:43:46;4;4;
64138;PMS5003;50435;43.700;-79.318;2023-12-29T06:46:13;4;4;
64138;PMS5003;50435;43.700;-79.318;2023-12-29T06:48:40;4;4;
64138;PMS5003;50435;43.700;-79.318;2023-12-29T06:51:07;4;4;
64138;PMS5003;50435;43.700;-79.318;2023-12-29T06:53:34;5;5;
64138;PMS5003;50435;43.700;-79.318;2023-12-29T06:56:01;5;5;
64138;PMS5003;50435;43.700;-79.318;2023-12-29T06:58:28;3;3;
64138;PMS5003;50435;43.700;-79.318;2023-12-29T07:00:57;6;5;
64138;PMS5003;50435;43.700;-79.318;2023-12-29T07:03:25;5;4;
64138;PMS5003;50435;43.700;-79.318;2023-12-29T07:05:53;11;8;
64138;PMS5003;50435;43.700;-79.318;2023-12-29T07:08:20;5;5;
64138;PMS5003;50435;43.700;-79.318;2023-12-29T07:10:47;4;4;
64138;PMS5003;50435;43.700;-79.318;2023-12-29T07:13:15;4;4;
64138;PMS5003;50435;43.700;-79.318;2023-12-29T07:15:42;5;4;
64138;PMS5003;50435;43.700;-79.318;2023-12-29T07:18:09;3;3;
64138;PMS5003;50435;43.700;-79.318;2023-12-29T07:20:36;4;4;
64138;PMS5003;50435;43.700;-79.318;2023-12-29T07:23:03;4;3;
64138;PMS5003;50435;43.700;-79.318;2023-12-29T07:25:31;5;4;
64138;PMS5003;50435;43.700;-79.318;2023-12-29T07:27:58;7;6;
64138;PMS5003;50435;43.700;-79.318;2023-12-29T07:30:25;6;6;
64138;PMS5003;50435;43.700;-79.318;2023-12-29T07:32:52;4;4;
64138;PMS5003;50435;43.700;-79.318;2023-12-29T07:35:19;6;5;
64138;PMS5003;50435;43.700;-79.318;2023-12-29T07:37:47;5;5;
64138;PMS5003;50435;43.700;-79.318;2023-12-29T07:40:15;7;6;
64138;PMS5003;50435;43.700;-79.318;2023-12-29T07:42:42;7;5;
64138;PMS5003;50435;43.700;-79.318;2023-12-29T07:45:09;4;4;
64138;PMS5003;50435;43.700;-79.318;2023-12-29T07:47:37;3;3;
64138;PMS5003;50435;43.700;-79.318;2023-12-29T07:50:05;8;5;
64138;PMS5003;50435;43.700;-79.318;2023-12-29T07:52:33;8;5;
64138;PMS5003;50435;43.700;-79.318;2023-12-29T07:55:01;7;6;
64138;PMS5003;50435;43.700;-79.318;2023-12-29T07:57:29;4;4;
64138;PMS5003;50435;43.700;-79.318;2023-12-29T07:59:56;7;5;
64138;PMS5003;50435;43.700;-79.318;2023-12-29T08:02:24;6;6;
64138;PMS5003;50435;43.700;-79.318;2023-12-29T08:04:51;8;8;
64138;PMS5003;50435;43.700;-79.318;2023-12-29T08:07:19;6;6;
64138;PMS5003;50435;43.700;-79.318;2023-12-29T08:09:46;6;4;
64138;PMS5003;50435;43.700;-79.318;2023-12-29T08:12:14;8;6;
64138;PMS5003;50435;43.700;-79.318;2023-12-29T08:14:41;8;7;
64138;PMS5003;50435;43.700;-79.318;2023-12-29T08:17:08;6;6;
64138;PMS5003;50435;43.700;-79.318;2023-12-29T08:19:35;10;8;
64138;PMS5003;50435;43.700;-79.318;2023-12-29T08:22:03;10;8;
64138;PMS5003;50435;43.700;-79.318;2023-12-29T08:24:30;11;11;
64138;PMS5003;50435;43.700;-79.318;2023-12-29T08:26:58;9;9;
64138;PMS5003;50435;43.700;-79.318;2023-12-29T08:29:26;16;9;
64138;PMS5003;50435;43.700;-79.318;2023-12-29T08:31:53;12;12;
64138;PMS5003;50435;43.700;-79.318;2023-12-29T08:34:20;12;11;
64138;PMS5003;50435;43.700;-79.318;2023-12-29T08:36:48;10;10;
64138;PMS5003;50435;43.700;-79.318;2023-12-29T08:39:15;9;8;
64138;PMS5003;50435;43.700;-79.318;2023-12-29T08:41:43;8;8;
64138;PMS5003;50435;43.700;-79.318;2023-12-29T08:44:11;10;9;
64138;PMS5003;50435;43.700;-79.318;2023-12-29T08:46:38;10;8;
64138;PMS5003;50435;43.700;-79.318;2023-12-29T08:49:05;11;9;
64138;PMS5003;50435;43.700;-79.318;2023-12-29T08:51:32;12;9;
64138;PMS5003;50435;43.700;-79.318;2023-12-29T08:54:00;10;10;
64138;PMS5003;50435;43.700;-79.318;2023-12-29T08:56:28;11;9;
64138;PMS5003;50435;43.700;-79.318;2023-12-29T08:58:56;17;14;
64138;PMS5003;50435;43.700;-79.318;2023-12-29T09:01:23;10;10;
64138;PMS5003;50435;43.700;-79.318;2023-12-29T09:03:51;13;10;
64138;PMS5003;50435;43.700;-79.318;2023-12-29T09:06:18;13;11;
64138;PMS5003;50435;43.700;-79.318;2023-12-29T09:08:45;12;9;
64138;PMS5003;50435;43.700;-79.318;2023-12-29T09:11:13;11;10;
64138;PMS5003;50435;43.700;-79.318;2023-12-29T09:13:40;9;9;
64138;PMS5003;50435;43.700;-79.318;2023-12-29T09:16:07;13;11;
64138;PMS5003;50435;43.700;-79.318;2023-12-29T09:18:34;10;10;
64138;PMS5003;50435;43.700;-79.318;2023-12-29T09:21:02;11;10;
64138;PMS5003;50435;43.700;-79.318;2023-12-29T09:23:30;18;17;
64138;PMS5003;50435;43.700;-79.318;2023-12-29T09:25:57;9;9;
64138;PMS5003;50435;43.700;-79.318;2023-12-29T09:28:25;14;11;
64138;PMS5003;50435;43.700;-79.318;2023-12-29T09:30:53;13;11;
64138;PMS5003;50435;43.700;-79.318;2023-12-29T09:33:20;19;16;
64138;PMS5003;50435;43.700;-79.318;2023-12-29T09:35:48;16;10;
64138;PMS5003;50435;43.700;-79.318;2023-12-29T09:38:15;14;13;
64138;PMS5003;50435;43.700;-79.318;2023-12-29T09:40:42;11;11;
64138;PMS5003;50435;43.700;-79.318;2023-12-29T09:43:09;16;12;
64138;PMS5003;50435;43.700;-79.318;2023-12-29T09:45:38;16;14;
64138;PMS5003;50435;43.700;-79.318;2023-12-29T09:48:11;13;12;
64138;PMS5003;50435;43.700;-79.318;2023-12-29T09:50:39;14;11;
64138;PMS5003;50435;43.700;-79.318;2023-12-29T09:53:09;12;11;
64138;PMS5003;50435;43.700;-79.318;2023-12-29T09:55:38;18;16;
64138;PMS5003;50435;43.700;-79.318;2023-12-29T09:58:07;14;13;
64138;PMS5003;50435;43.700;-79.318;2023-12-29T10:00:36;14;13;
64138;PMS5003;50435;43.700;-79.318;2023-12-29T10:03:05;12;12;
64138;PMS5003;50435;43.700;-79.318;2023-12-29T10:05:33;16;14;
64138;PMS5003;50435;43.700;-79.318;2023-12-29T10:08:01;14;14;
64138;PMS5003;50435;43.700;-79.318;2023-12-29T10:10:31;13;10;
64138;PMS5003;50435;43.700;-79.318;2023-12-29T10:13:00;18;14;
64138;PMS5003;50435;43.700;-79.318;2023-12-29T10:15:30;14;13;
64138;PMS5003;50435;43.700;-79.318;2023-12-29T10:18:06;16;11;
64138;PMS5003;50435;43.700;-79.318;2023-12-29T10:20:43;12;12;
64138;PMS5003;50435;43.700;-79.318;2023-12-29T10:23:16;9;7;
64138;PMS5003;50435;43.700;-79.318;2023-12-29T10:25:47;11;10;
64138;PMS5003;50435;43.700;-79.318;2023-12-29T10:28:15;14;13;
64138;PMS5003;50435;43.700;-79.318;2023-12-29T10:30:43;17;14;
64138;PMS5003;50435;43.700;-79.318;2023-12-29T10:33:10;19;16;
64138;PMS5003;50435;43.700;-79.318;2023-12-29T10:35:47;12;12;
64138;PMS5003;50435;43.700;-79.318;2023-12-29T10:38:23;11;10;
64138;PMS5003;50435;43.700;-79.318;2023-12-29T10:40:51;11;11;
64138;PMS5003;50435;43.700;-79.318;2023-12-29T10:43:21;20;17;
64138;PMS5003;50435;43.700;-79.318;2023-12-29T10:45:49;17;15;
64138;PMS5003;50435;43.700;-79.318;2023-12-29T10:48:33;11;11;
64138;PMS5003;50435;43.700;-79.318;2023-12-29T10:51:00;17;13;
64138;PMS5003;50435;43.700;-79.318;2023-12-29T10:53:29;12;12;
64138;PMS5003;50435;43.700;-79.318;2023-12-29T10:55:57;12;9;
64138;PMS5003;50435;43.700;-79.318;2023-12-29T10:58:24;12;10;
64138;PMS5003;50435;43.700;-79.318;2023-12-29T11:00:52;16;12;
64138;PMS5003;50435;43.700;-79.318;2023-12-29T11:03:20;13;11;
64138;PMS5003;50435;43.700;-79.318;2023-12-29T11:05:48;17;14;
64138;PMS5003;50435;43.700;-79.318;2023-12-29T11:08:16;19;15;
64138;PMS5003;50435;43.700;-79.318;2023-12-29T11:10:45;18;17;
64138;PMS5003;50435;43.700;-79.318;2023-12-29T11:13:15;13;11;
64138;PMS5003;50435;43.700;-79.318;2023-12-29T11:15:43;19;16;
64138;PMS5003;50435;43.700;-79.318;2023-12-29T11:18:11;17;14;
64138;PMS5003;50435;43.700;-79.318;2023-12-29T11:20:41;18;13;
64138;PMS5003;50435;43.700;-79.318;2023-12-29T11:23:10;17;14;
64138;PMS5003;50435;43.700;-79.318;2023-12-29T11:25:38;14;14;
64138;PMS5003;50435;43.700;-79.318;2023-12-29T11:28:06;16;13;
64138;PMS5003;50435;43.700;-79.318;2023-12-29T11:30:37;17;14;
64138;PMS5003;50435;43.700;-79.318;2023-12-29T11:33:07;17;12;
64138;PMS5003;50435;43.700;-79.318;2023-12-29T11:35:39;17;14;
64138;PMS5003;50435;43.700;-79.318;2023-12-29T11:38:15;18;16;
64138;PMS5003;50435;43.700;-79.318;2023-12-29T11:40:52;17;15;
64138;PMS5003;50435;43.700;-79.318;2023-12-29T11:43:28;21;18;
64138;PMS5003;50435;43.700;-79.318;2023-12-29T11:45:56;17;16;
64138;PMS5003;50435;43.700;-79.318;2023-12-29T11:48:56;17;16;
64138;PMS5003;50435;43.700;-79.318;2023-12-29T11:51:31;14;14;
64138;PMS5003;50435;43.700;-79.318;2023-12-29T11:54:00;20;17;
64138;PMS5003;50435;43.700;-79.318;2023-12-29T11:56:33;14;14;
64138;PMS5003;50435;43.700;-79.318;2023-12-29T11:59:12;17;14;
64138;PMS5003;50435;43.700;-79.318;2023-12-29T12:01:40;21;17;
64138;PMS5003;50435;43.700;-79.318;2023-12-29T12:04:42;22;18;
64138;PMS5003;50435;43.700;-79.318;2023-12-29T12:07:13;16;16;
64138;PMS5003;50435;43.700;-79.318;2023-12-29T12:09:43;19;19;
64138;PMS5003;50435;43.700;-79.318;2023-12-29T12:12:10;19;19;
64138;PMS5003;50435;43.700;-79.318;2023-12-29T12:14:46;18;14;
64138;PMS5003;50435;43.700;-79.318;2023-12-29T12:17:31;19;17;
64138;PMS5003;50435;43.700;-79.318;2023-12-29T12:20:01;21;18;
64138;PMS5003;50435;43.700;-79.318;2023-12-29T12:22:30;21;20;
64138;PMS5003;50435;43.700;-79.318;2023-12-29T12:24:59;22;18;
64138;PMS5003;50435;43.700;-79.318;2023-12-29T12:27:26;18;18;
64138;PMS5003;50435;43.700;-79.318;2023-12-29T12:29:55;22;20;
64138;PMS5003;50435;43.700;-79.318;2023-12-29T12:32:23;18;12;
64138;PMS5003;50435;43.700;-79.318;2023-12-29T12:34:52;21;21;
64138;PMS5003;50435;43.700;-79.318;2023-12-29T12:37:20;18;16;
64138;PMS5003;50435;43.700;-79.318;2023-12-29T12:39:48;26;21;
64138;PMS5003;50435;43.700;-79.318;2023-12-29T12:42:16;26;23;
64138;PMS5003;50435;43.700;-79.318;2023-12-29T12:44:47;20;18;
64138;PMS5003;50435;43.700;-79.318;2023-12-29T12:47:23;19;18;
64138;PMS5003;50435;43.700;-79.318;2023-12-29T12:49:54;24;20;
64138;PMS5003;50435;43.700;-79.318;2023-12-29T12:52:22;19;17;
64138;PMS5003;50435;43.700;-79.318;2023-12-29T12:54:49;18;14;
64138;PMS5003;50435;43.700;-79.318;2023-12-29T12:57:20;25;19;
64138;PMS5003;50435;43.700;-79.318;2023-12-29T12:59:48;21;20;
64138;PMS5003;50435;43.700;-79.318;2023-12-29T13:02:16;19;18;
64138;PMS5003;50435;43.700;-79.318;2023-12-29T13:04:44;17;17;
64138;PMS5003;50435;43.700;-79.318;2023-12-29T13:07:15;20;19;
64138;PMS5003;50435;43.700;-79.318;2023-12-29T13:09:43;20;19;
64138;PMS5003;50435;43.700;-79.318;2023-12-29T13:12:12;18;18;
64138;PMS5003;50435;43.700;-79.318;2023-12-29T13:14:41;25;22;
64138;PMS5003;50435;43.700;-79.318;2023-12-29T13:17:09;25;22;
64138;PMS5003;50435;43.700;-79.318;2023-12-29T13:19:38;23;19;
64138;PMS5003;50435;43.700;-79.318;2023-12-29T13:22:07;21;19;
64138;PMS5003;50435;43.700;-79.318;2023-12-29T13:24:36;21;20;
64138;PMS5003;50435;43.700;-79.318;2023-12-29T13:27:09;23;18;
64138;PMS5003;50435;43.700;-79.318;2023-12-29T13:29:38;25;22;
64138;PMS5003;50435;43.700;-79.318;2023-12-29T13:32:07;26;22;
64138;PMS5003;50435;43.700;-79.318;2023-12-29T13:34:40;21;19;
64138;PMS5003;50435;43.700;-79.318;2023-12-29T13:37:20;24;19;
64138;PMS5003;50435;43.700;-79.318;2023-12-29T13:39:52;24;22;
64138;PMS5003;50435;43.700;-79.318;2023-12-29T13:42:23;20;19;
64138;PMS5003;50435;43.700;-79.318;2023-12-29T13:44:54;26;22;
64138;PMS5003;50435;43.700;-79.318;2023-12-29T13:47:23;24;21;
64138;PMS5003;50435;43.700;-79.318;2023-12-29T13:49:51;25;20;
64138;PMS5003;50435;43.700;-79.318;2023-12-29T13:52:19;24;22;
64138;PMS5003;50435;43.700;-79.318;2023-12-29T13:54:46;24;20;
64138;PMS5003;50435;43.700;-79.318;2023-12-29T13:57:13;23;20;
64138;PMS5003;50435;43.700;-79.318;2023-12-29T13:59:40;24;21;
64138;PMS5003;50435;43.700;-79.318;2023-12-29T14:02:27;28;25;
64138;PMS5003;50435;43.700;-79.318;2023-12-29T14:05:31;18;18;
64138;PMS5003;50435;43.700;-79.318;2023-12-29T14:08:05;23;22;
64138;PMS5003;50435;43.700;-79.318;2023-12-29T14:10:36;23;20;
64138;PMS5003;50435;43.700;-79.318;2023-12-29T14:13:05;23;19;
64138;PMS5003;50435;43.700;-79.318;2023-12-29T14:15:34;19;18;
64138;PMS5003;50435;43.700;-79.318;2023-12-29T14:18:04;24;23;
64138;PMS5003;50435;43.700;-79.318;2023-12-29T14:20:45;19;18;
64138;PMS5003;50435;43.700;-79.318;2023-12-29T14:23:12;28;20;
64138;PMS5003;50435;43.700;-79.318;2023-12-29T14:25:44;24;21;
64138;PMS5003;50435;43.700;-79.318;2023-12-29T14:28:14;25;21;
64138;PMS5003;50435;43.700;-79.318;2023-12-29T14:30:43;25;25;
64138;PMS5003;50435;43.700;-79.318;2023-12-29T14:33:11;25;24;
64138;PMS5003;50435;43.700;-79.318;2023-12-29T14:35:39;25;21;
64138;PMS5003;50435;43.700;-79.318;2023-12-29T14:38:06;21;20;
64138;PMS5003;50435;43.700;-79.318;2023-12-29T14:40:34;19;19;
64138;PMS5003;50435;43.700;-79.318;2023-12-29T14:43:01;29;22;
64138;PMS5003;50435;43.700;-79.318;2023-12-29T14:45:28;22;22;
64138;PMS5003;50435;43.700;-79.318;2023-12-29T14:47:56;20;18;
64138;PMS5003;50435;43.700;-79.318;2023-12-29T14:50:24;26;22;
64138;PMS5003;50435;43.700;-79.318;2023-12-29T14:52:52;19;17;
64138;PMS5003;50435;43.700;-79.318;2023-12-29T14:55:20;20;20;
64138;PMS5003;50435;43.700;-79.318;2023-12-29T14:57:47;20;17;
64138;PMS5003;50435;43.700;-79.318;2023-12-29T15:00:15;18;16;
64138;PMS5003;50435;43.700;-79.318;2023-12-29T15:02:42;19;19;
64138;PMS5003;50435;43.700;-79.318;2023-12-29T15:05:10;24;24;
64138;PMS5003;50435;43.700;-79.318;2023-12-29T15:07:38;22;19;
64138;PMS5003;50435;43.700;-79.318;2023-12-29T15:10:06;25;21;
64138;PMS5003;50435;43.700;-79.318;2023-12-29T15:12:34;28;21;
64138;PMS5003;50435;43.700;-79.318;2023-12-29T15:15:01;22;19;
64138;PMS5003;50435;43.700;-79.318;2023-12-29T15:17:29;21;20;
64138;PMS5003;50435;43.700;-79.318;2023-12-29T15:19:56;22;18;
64138;PMS5003;50435;43.700;-79.318;2023-12-29T15:22:23;28;22;
64138;PMS5003;50435;43.700;-79.318;2023-12-29T15:24:51;22;18;
64138;PMS5003;50435;43.700;-79.318;2023-12-29T15:27:18;23;19;
64138;PMS5003;50435;43.700;-79.318;2023-12-29T15:29:46;17;17;
64138;PMS5003;50435;43.700;-79.318;2023-12-29T15:32:13;26;20;
64138;PMS5003;50435;43.700;-79.318;2023-12-29T15:34:41;27;23;
64138;PMS5003;50435;43.700;-79.318;2023-12-29T15:37:08;28;22;
64138;PMS5003;50435;43.700;-79.318;2023-12-29T15:39:36;24;21;
64138;PMS5003;50435;43.700;-79.318;2023-12-29T15:42:06;26;22;
64138;PMS5003;50435;43.700;-79.318;2023-12-29T15:44:34;23;19;
64138;PMS5003;50435;43.700;-79.318;2023-12-29T15:47:01;21;21;
64138;PMS5003;50435;43.700;-79.318;2023-12-29T15:49:28;22;20;
64138;PMS5003;50435;43.700;-79.318;2023-12-29T15:51:56;20;19;
64138;PMS5003;50435;43.700;-79.318;2023-12-29T15:54:24;23;20;
64138;PMS5003;50435;43.700;-79.318;2023-12-29T15:56:51;24;19;
64138;PMS5003;50435;43.700;-79.318;2023-12-29T15:59:18;20;20;
64138;PMS5003;50435;43.700;-79.318;2023-12-29T16:01:46;24;20;
64138;PMS5003;50435;43.700;-79.318;2023-12-29T16:04:14;28;25;
64138;PMS5003;50435;43.700;-79.318;2023-12-29T16:06:41;24;18;
64138;PMS5003;50435;43.700;-79.318;2023-12-29T16:09:09;32;26;
64138;PMS5003;50435;43.700;-79.318;2023-12-29T16:11:37;22;20;